createdAt,value
2022-10-09T00:01:47.538Z,66.64
2022-10-09T00:04:49.404Z,69.68
2022-10-09T00:07:51.189Z,70.17
2022-10-09T00:10:53.065Z,66.34
2022-10-09T00:13:57.388Z,66.96
2022-10-09T00:16:59.301Z,68.27
2022-10-09T00:20:01.214Z,69.15
2022-10-09T00:23:03.038Z,65.77
2022-10-09T00:26:05.046Z,68.13
2022-10-09T00:29:06.849Z,67.98
2022-10-09T00:32:08.633Z,67.38
2022-10-09T00:35:10.461Z,67.15
2022-10-09T00:38:12.245Z,69.81
2022-10-09T00:41:24.138Z,72.45
2022-10-09T00:44:44.641Z,72.59
2022-10-09T00:47:50.899Z,72.47
2022-10-09T00:50:53.487Z,70.70
2022-10-09T00:53:55.317Z,68.79
2022-10-09T00:56:57.176Z,68.36
2022-10-09T00:59:59.499Z,67.84
2022-10-09T01:03:01.281Z,72.97
2022-10-09T01:06:07.934Z,72.79
2022-10-09T01:09:13.978Z,73.42
2022-10-09T01:12:39.254Z,73.71
2022-10-09T01:15:44.026Z,72.29
2022-10-09T01:18:49.327Z,71.19
2022-10-09T01:21:53.255Z,68.81
2022-10-09T01:24:55.498Z,65.48
2022-10-09T01:27:57.339Z,65.84
2022-10-09T01:31:00.245Z,66.35
2022-10-09T01:34:02.113Z,66.35
2022-10-09T01:37:03.923Z,66.53
2022-10-09T01:40:06.005Z,71.08
2022-10-09T01:43:07.794Z,73.76
2022-10-09T01:46:19.926Z,73.52
2022-10-09T01:49:41.229Z,71.61
2022-10-09T01:52:43.005Z,69.42
2022-10-09T01:55:47.991Z,68.58
2022-10-09T01:58:57.133Z,68.76
2022-10-09T02:01:59.120Z,73.00
2022-10-09T02:05:01.079Z,74.33
2022-10-09T02:08:02.995Z,72.09
2022-10-09T02:11:05.078Z,73.34
2022-10-09T02:14:06.893Z,70.89
2022-10-09T02:17:10.230Z,71.14
2022-10-09T02:20:25.763Z,72.41
2022-10-09T02:23:27.576Z,70.73
2022-10-09T02:26:29.371Z,70.57
2022-10-09T02:29:31.200Z,70.67
2022-10-09T02:32:33.016Z,71.81
2022-10-09T02:35:34.835Z,71.25
2022-10-09T02:38:36.711Z,69.99
2022-10-09T02:41:38.605Z,70.18
2022-10-09T02:44:40.414Z,71.44
2022-10-09T02:47:42.256Z,72.29
2022-10-09T02:50:44.086Z,74.85
2022-10-09T02:53:45.885Z,73.53
2022-10-09T02:56:47.777Z,71.14
2022-10-09T02:59:49.662Z,70.56
2022-10-09T03:02:51.897Z,72.64
2022-10-09T03:06:01.054Z,70.01
2022-10-09T03:09:02.969Z,69.65
2022-10-09T03:12:04.965Z,68.83
2022-10-09T03:15:07.113Z,72.09
2022-10-09T03:18:08.931Z,71.06
2022-10-09T03:21:12.384Z,70.82
2022-10-09T03:24:14.340Z,67.49
2022-10-09T03:27:16.662Z,67.18
2022-10-09T03:30:18.539Z,67.81
2022-10-09T03:33:20.415Z,65.61
2022-10-09T03:36:22.251Z,70.41
2022-10-09T03:39:24.073Z,70.61
2022-10-09T03:42:25.927Z,70.25
2022-10-09T03:45:27.707Z,68.92
2022-10-09T03:48:29.506Z,69.82
2022-10-09T03:51:31.373Z,69.36
2022-10-09T03:54:33.162Z,69.95
2022-10-09T03:57:35.202Z,72.96
2022-10-09T04:00:37.157Z,73.57
2022-10-09T04:03:39.062Z,71.35
2022-10-09T04:06:40.924Z,66.52
2022-10-09T04:09:42.733Z,66.70
2022-10-09T04:12:44.606Z,70.50
2022-10-09T04:15:49.927Z,69.82
2022-10-09T04:18:51.854Z,69.12
2022-10-09T04:21:53.750Z,69.98
2022-10-09T04:24:55.568Z,68.96
2022-10-09T04:27:57.366Z,67.30
2022-10-09T04:30:59.206Z,71.07
2022-10-09T04:34:01.114Z,67.69
2022-10-09T04:37:02.891Z,65.08
2022-10-09T04:40:04.890Z,71.08
2022-10-09T04:43:06.731Z,68.77
2022-10-09T04:46:10.178Z,66.41
2022-10-09T04:49:13.253Z,69.49
2022-10-09T04:52:15.158Z,67.42
2022-10-09T04:55:16.986Z,69.46
2022-10-09T04:58:18.797Z,67.01
2022-10-09T05:01:24.583Z,65.48
2022-10-09T05:04:26.419Z,67.21
2022-10-09T05:07:28.280Z,73.55
2022-10-09T05:10:30.860Z,75.05
2022-10-09T05:13:33.369Z,75.49
2022-10-09T05:16:49.378Z,73.51
2022-10-09T05:19:57.016Z,73.39
2022-10-09T05:22:59.001Z,75.59
2022-10-09T05:26:01.332Z,73.23
2022-10-09T05:29:03.460Z,74.12
2022-10-09T05:32:05.381Z,73.70
2022-10-09T05:35:07.341Z,72.88
2022-10-09T05:38:09.158Z,71.35
2022-10-09T05:41:12.131Z,72.26
2022-10-09T05:44:13.920Z,73.62
2022-10-09T05:47:17.932Z,73.71
2022-10-09T05:50:19.941Z,73.69
2022-10-09T05:53:21.801Z,73.91
2022-10-09T05:56:27.450Z,73.76
2022-10-09T05:59:29.277Z,75.78
2022-10-09T06:02:31.145Z,75.57
2022-10-09T06:05:32.980Z,72.47
2022-10-09T06:08:35.514Z,75.41
2022-10-09T06:11:38.401Z,72.96
2022-10-09T06:14:40.264Z,73.79
2022-10-09T06:17:42.099Z,72.28
2022-10-09T06:20:52.953Z,70.52
2022-10-09T06:23:55.721Z,68.17
2022-10-09T06:26:57.799Z,69.90
2022-10-09T06:29:59.923Z,69.39
2022-10-09T06:33:01.773Z,66.60
2022-10-09T06:36:10.067Z,63.69
2022-10-09T06:39:12.414Z,59.64
2022-10-09T06:42:14.277Z,57.23
2022-10-09T06:45:16.088Z,56.67
2022-10-09T06:48:17.902Z,54.21
2022-10-09T06:51:20.578Z,53.26
2022-10-09T06:54:22.566Z,53.85
2022-10-09T06:57:24.353Z,52.49
2022-10-09T07:00:26.251Z,50.46
2022-10-09T07:03:28.169Z,51.39
2022-10-09T07:06:31.041Z,48.94
2022-10-09T07:09:32.815Z,45.81
2022-10-09T07:12:35.049Z,48.44
2022-10-09T07:15:37.019Z,50.38
2022-10-09T07:18:39.011Z,45.77
2022-10-09T07:21:41.817Z,45.91
2022-10-09T07:24:43.649Z,43.97
2022-10-09T07:27:45.499Z,43.84
2022-10-09T07:30:47.331Z,42.96
2022-10-09T07:33:49.465Z,44.68
2022-10-09T07:36:51.377Z,44.86
2022-10-09T07:39:53.196Z,44.32
2022-10-09T07:42:54.991Z,49.32
2022-10-09T07:46:00.179Z,50.45
2022-10-09T07:49:02.327Z,49.75
2022-10-09T07:52:04.132Z,53.15
2022-10-09T07:55:06.057Z,51.08
2022-10-09T07:58:07.861Z,51.74
2022-10-09T08:01:10.070Z,53.63
2022-10-09T08:04:12.036Z,56.66
2022-10-09T08:07:13.909Z,57.33
2022-10-09T08:10:15.716Z,56.27
2022-10-09T08:13:17.496Z,52.98
2022-10-09T08:16:19.818Z,51.89
2022-10-09T08:19:21.671Z,51.90
2022-10-09T08:22:23.737Z,51.36
2022-10-09T08:25:25.564Z,53.85
2022-10-09T08:28:27.420Z,56.64
2022-10-09T08:31:29.466Z,55.79
2022-10-09T08:34:31.259Z,55.76
2022-10-09T08:37:33.162Z,55.29
2022-10-09T08:40:38.018Z,55.25
2022-10-09T08:43:41.929Z,56.67
2022-10-09T08:46:43.785Z,54.68
2022-10-09T08:49:45.561Z,53.63
2022-10-09T08:52:50.060Z,51.37
2022-10-09T08:55:56.401Z,47.78
2022-10-09T08:58:58.245Z,50.12
2022-10-09T09:02:03.162Z,51.67
2022-10-09T09:05:05.085Z,52.79
2022-10-09T09:08:26.041Z,52.46
2022-10-09T09:11:31.113Z,51.73
2022-10-09T09:14:48.310Z,50.51
2022-10-09T09:18:09.027Z,48.42
2022-10-09T09:21:10.834Z,46.68
2022-10-09T09:24:14.266Z,47.23
2022-10-09T09:27:20.586Z,47.39
2022-10-09T09:30:28.040Z,47.61
2022-10-09T09:33:36.229Z,46.37
2022-10-09T09:36:40.467Z,46.13
2022-10-09T09:43:05.630Z,48.07
2022-10-09T09:46:10.532Z,47.56
2022-10-09T09:49:16.366Z,42.59
2022-10-09T09:52:18.183Z,41.53
2022-10-09T09:55:24.498Z,38.94
2022-10-09T09:58:29.445Z,40.24
2022-10-09T10:01:31.434Z,42.42
2022-10-09T10:04:33.220Z,41.25
2022-10-09T10:07:36.067Z,39.46
2022-10-09T10:10:37.900Z,35.47
2022-10-09T10:13:45.993Z,34.54
2022-10-09T10:16:51.412Z,31.94
2022-10-09T10:19:53.325Z,29.87
2022-10-09T10:22:55.762Z,30.59
2022-10-09T10:25:57.945Z,36.04
2022-10-09T10:29:02.782Z,33.04
2022-10-09T10:32:13.708Z,33.90
2022-10-09T10:35:17.373Z,35.33
2022-10-09T10:38:22.590Z,33.96
2022-10-09T10:41:26.272Z,34.00
2022-10-09T10:44:47.584Z,35.52
2022-10-09T10:47:50.347Z,39.42
2022-10-09T10:50:58.576Z,38.41
2022-10-09T10:54:03.147Z,37.88
2022-10-09T10:57:17.330Z,40.32
2022-10-09T11:00:19.124Z,40.85
2022-10-09T11:03:30.131Z,42.10
2022-10-09T11:06:37.853Z,43.36
2022-10-09T11:09:39.821Z,45.93
2022-10-09T11:12:48.179Z,46.36
2022-10-09T11:15:56.288Z,44.09
2022-10-09T11:19:04.103Z,45.27
2022-10-09T11:22:24.767Z,41.24
2022-10-09T11:25:31.031Z,42.73
2022-10-09T11:28:38.342Z,42.58
2022-10-09T11:31:48.637Z,40.35
2022-10-09T11:35:07.333Z,41.43
2022-10-09T11:38:18.755Z,40.29
2022-10-09T11:41:20.675Z,41.90
2022-10-09T11:44:31.878Z,41.65
2022-10-09T11:47:42.330Z,40.85
2022-10-09T11:50:47.252Z,42.42
2022-10-09T11:53:49.076Z,40.75
2022-10-09T11:56:58.404Z,43.63
2022-10-09T12:00:07.542Z,44.07
2022-10-09T12:03:20.190Z,42.42
2022-10-09T12:06:22.412Z,42.93
2022-10-09T12:09:24.977Z,43.09
2022-10-09T12:12:26.972Z,43.09
2022-10-09T12:15:37.027Z,42.65
2022-10-09T12:18:39.523Z,42.24
2022-10-09T12:21:46.788Z,43.21
2022-10-09T12:24:49.500Z,41.60
2022-10-09T12:27:53.096Z,41.46
2022-10-09T12:30:56.078Z,40.76
2022-10-09T12:33:59.692Z,41.13
2022-10-09T12:37:09.798Z,39.06
2022-10-09T12:40:16.127Z,39.89
2022-10-09T12:43:18.614Z,43.88
2022-10-09T12:46:26.746Z,43.76
2022-10-09T12:49:28.610Z,41.73
2022-10-09T12:52:31.146Z,42.00
2022-10-09T12:55:33.010Z,40.79
2022-10-09T12:58:36.829Z,42.62
2022-10-09T13:01:39.452Z,42.00
2022-10-09T13:04:41.554Z,40.38
2022-10-09T13:07:48.328Z,42.89
2022-10-09T13:10:50.629Z,43.95
2022-10-09T13:13:52.693Z,40.59
2022-10-09T13:16:54.612Z,39.09
2022-10-09T13:19:57.375Z,36.04
2022-10-09T13:23:00.355Z,34.17
2022-10-09T13:26:03.709Z,31.87
2022-10-09T13:29:06.513Z,29.91
2022-10-09T13:32:10.705Z,27.59
2022-10-09T13:35:12.687Z,24.98
2022-10-09T13:38:15.778Z,25.02
2022-10-09T13:41:21.373Z,25.89
2022-10-09T13:44:25.412Z,25.04
2022-10-09T13:47:27.186Z,27.99
2022-10-09T13:50:29.825Z,33.30
2022-10-09T13:53:31.667Z,34.53
2022-10-09T13:56:33.540Z,34.82
2022-10-09T13:59:36.230Z,38.13
2022-10-09T14:02:38.133Z,38.07
2022-10-09T14:05:41.458Z,39.06
2022-10-09T14:08:43.455Z,39.46
2022-10-09T14:11:45.619Z,39.98
2022-10-09T14:14:47.458Z,38.06
2022-10-09T14:17:49.449Z,40.23
2022-10-09T14:20:51.550Z,40.72
2022-10-09T14:23:54.053Z,39.61
2022-10-09T14:26:55.923Z,40.04
2022-10-09T14:29:57.785Z,41.90
2022-10-09T14:32:59.820Z,39.21
2022-10-09T14:36:08.207Z,39.77
2022-10-09T14:39:10.113Z,43.41
2022-10-09T14:42:12.076Z,42.80
2022-10-09T14:45:14.061Z,42.01
2022-10-09T14:48:15.871Z,44.16
2022-10-09T14:51:21.144Z,43.27
2022-10-09T14:54:23.143Z,40.97
2022-10-09T14:57:24.939Z,43.84
2022-10-09T15:00:26.857Z,39.78
2022-10-09T15:03:29.430Z,40.42
2022-10-09T15:06:31.788Z,39.25
2022-10-09T15:09:33.663Z,39.54
2022-10-09T15:12:35.536Z,40.95
2022-10-09T15:15:37.543Z,40.38
2022-10-09T15:18:39.454Z,41.73
2022-10-09T15:21:41.769Z,42.17
2022-10-09T15:24:43.669Z,40.99
2022-10-09T15:27:45.530Z,42.81
2022-10-09T15:30:48.481Z,42.06
2022-10-09T15:33:51.251Z,42.08
2022-10-09T15:36:53.225Z,42.34
2022-10-09T15:39:55.220Z,42.97
2022-10-09T15:42:57.048Z,42.64
2022-10-09T15:46:03.467Z,42.72
2022-10-09T15:49:06.208Z,42.57
2022-10-09T15:52:08.067Z,43.04
2022-10-09T15:55:10.010Z,43.25
2022-10-09T15:58:12.072Z,43.18
2022-10-09T16:01:14.584Z,42.92
2022-10-09T16:04:16.462Z,43.04
2022-10-09T16:07:18.275Z,43.52
2022-10-09T16:10:20.169Z,43.71
2022-10-09T16:13:22.734Z,43.65
2022-10-09T16:16:25.175Z,44.65
2022-10-09T16:19:27.004Z,43.98
2022-10-09T16:22:28.859Z,45.10
2022-10-09T16:25:30.966Z,44.32
2022-10-09T16:28:33.385Z,43.76
2022-10-09T16:31:35.442Z,43.70
2022-10-09T16:34:37.527Z,43.77
2022-10-09T16:37:39.429Z,43.93
2022-10-09T16:44:10.500Z,43.48
2022-10-09T16:47:13.977Z,43.34
2022-10-09T16:50:15.790Z,43.19
2022-10-09T16:53:17.638Z,43.37
2022-10-09T16:56:20.655Z,44.33
2022-10-09T16:59:22.482Z,43.41
2022-10-09T17:02:24.302Z,44.41
2022-10-09T17:05:26.380Z,45.14
2022-10-09T17:08:28.844Z,43.37
2022-10-09T17:11:30.816Z,43.89
2022-10-09T17:14:34.982Z,43.59
2022-10-09T17:17:38.483Z,43.39
2022-10-09T17:20:40.442Z,43.58
2022-10-09T17:23:42.441Z,43.49
2022-10-09T17:26:44.287Z,43.84
2022-10-09T17:29:46.153Z,44.79
2022-10-09T17:32:48.480Z,45.43
2022-10-09T17:35:50.529Z,44.71
2022-10-09T17:38:52.536Z,44.68
2022-10-09T17:41:54.376Z,44.04
2022-10-09T17:44:56.183Z,44.97
2022-10-09T17:47:58.042Z,45.72
2022-10-09T17:51:00.166Z,45.02
2022-10-09T17:54:04.934Z,45.24
2022-10-09T17:57:12.480Z,45.26
2022-10-09T18:00:17.528Z,45.61
2022-10-09T18:03:22.785Z,44.73
2022-10-09T18:06:24.670Z,44.44
2022-10-09T18:09:26.515Z,45.26
2022-10-09T18:12:28.369Z,45.00
2022-10-09T18:15:30.171Z,46.47
2022-10-09T18:18:32.070Z,44.89
2022-10-09T18:21:35.135Z,48.17
2022-10-09T18:24:37.278Z,46.44
2022-10-09T18:27:39.068Z,49.13
2022-10-09T18:30:46.204Z,48.49
2022-10-09T18:33:48.044Z,46.91
2022-10-09T18:36:51.968Z,47.14
2022-10-09T18:39:53.887Z,47.83
2022-10-09T18:42:55.710Z,47.56
2022-10-09T18:45:58.053Z,47.07
2022-10-09T18:49:02.908Z,46.90
2022-10-09T18:52:04.729Z,46.97
2022-10-09T18:55:06.942Z,45.45
2022-10-09T18:58:08.783Z,46.00
2022-10-09T19:01:10.682Z,49.77
2022-10-09T19:04:12.514Z,52.05
2022-10-09T19:07:14.343Z,50.68
2022-10-09T19:10:16.185Z,49.57
2022-10-09T19:13:18.394Z,53.22
2022-10-09T19:16:20.252Z,52.74
2022-10-09T19:19:22.067Z,49.75
2022-10-09T19:22:24.220Z,52.43
2022-10-09T19:25:26.755Z,52.12
2022-10-09T19:28:31.193Z,53.41
2022-10-09T19:31:33.623Z,49.96
2022-10-09T19:34:35.504Z,51.80
2022-10-09T19:37:37.609Z,51.38
2022-10-09T19:40:39.459Z,49.31
2022-10-09T19:43:41.482Z,51.01
2022-10-09T19:46:43.373Z,51.29
2022-10-09T19:49:45.244Z,49.34
2022-10-09T19:52:47.075Z,50.61
2022-10-09T19:55:48.965Z,50.57
2022-10-09T19:58:50.790Z,51.69
2022-10-09T20:01:57.232Z,49.96
2022-10-09T20:04:59.433Z,49.75
2022-10-09T20:08:01.457Z,50.95
2022-10-09T20:11:03.714Z,51.00
2022-10-09T20:14:05.629Z,49.87
2022-10-09T20:17:07.477Z,50.42
2022-10-09T20:20:09.623Z,50.88
2022-10-09T20:23:11.428Z,51.81
2022-10-09T20:26:14.454Z,51.79
2022-10-09T20:29:16.268Z,50.25
2022-10-09T20:32:18.675Z,51.00
2022-10-09T20:35:20.577Z,53.24
2022-10-09T20:38:25.704Z,52.10
2022-10-09T20:41:28.818Z,49.50
2022-10-09T20:44:30.625Z,49.94
2022-10-09T20:47:32.465Z,48.31
2022-10-09T20:50:38.006Z,48.15
2022-10-09T20:53:39.824Z,50.14
2022-10-09T20:56:41.674Z,49.33
2022-10-09T20:59:43.893Z,48.16
2022-10-09T21:02:45.689Z,48.75
2022-10-09T21:05:47.514Z,50.25
2022-10-09T21:08:49.679Z,52.53
2022-10-09T21:11:51.577Z,51.91
2022-10-09T21:14:53.390Z,49.41
2022-10-09T21:17:55.215Z,50.23
2022-10-09T21:20:57.059Z,51.71
2022-10-09T21:23:59.453Z,49.27
2022-10-09T21:27:01.377Z,50.58
2022-10-09T21:30:03.329Z,48.55
2022-10-09T21:33:05.155Z,50.33
2022-10-09T21:36:10.784Z,49.48
2022-10-09T21:39:12.640Z,49.09
2022-10-09T21:42:14.428Z,48.32
2022-10-09T21:45:16.553Z,48.99
2022-10-09T21:48:18.512Z,50.19
2022-10-09T21:51:20.287Z,52.80
2022-10-09T21:54:22.113Z,50.18
2022-10-09T21:57:23.923Z,48.41
2022-10-09T22:00:25.843Z,47.98
2022-10-09T22:03:28.469Z,48.53
2022-10-09T22:06:30.264Z,49.95
2022-10-09T22:09:32.241Z,49.93
2022-10-09T22:12:34.118Z,47.87
2022-10-09T22:15:39.741Z,51.01
2022-10-09T22:18:41.684Z,49.39
2022-10-09T22:21:43.525Z,48.32
2022-10-09T22:24:45.385Z,49.99
2022-10-09T22:27:47.178Z,47.18
2022-10-09T22:30:48.984Z,46.32
2022-10-09T22:33:51.358Z,48.21
2022-10-09T22:36:53.178Z,49.57
2022-10-09T22:39:55.033Z,49.33
2022-10-09T22:42:56.864Z,49.24
2022-10-09T22:45:58.708Z,50.78
2022-10-09T22:49:00.789Z,47.47
2022-10-09T22:52:02.612Z,48.24
2022-10-09T22:55:04.610Z,47.00
2022-10-09T22:58:06.447Z,46.11
2022-10-09T23:01:16.068Z,48.19
2022-10-09T23:04:18.132Z,47.54
2022-10-09T23:07:19.986Z,46.21
2022-10-09T23:10:21.792Z,45.57
2022-10-09T23:13:23.706Z,45.98
2022-10-09T23:16:26.200Z,47.00
2022-10-09T23:19:28.012Z,47.54
2022-10-09T23:22:29.907Z,46.44
2022-10-09T23:25:31.776Z,48.37
2022-10-09T23:28:34.030Z,48.90
2022-10-09T23:31:36.019Z,46.45
2022-10-09T23:34:37.846Z,46.29
2022-10-09T23:37:39.705Z,47.04
2022-10-09T23:40:41.592Z,44.75
2022-10-09T23:43:44.089Z,48.38
2022-10-09T23:46:45.900Z,45.35
2022-10-09T23:49:47.708Z,46.12
2022-10-09T23:52:49.680Z,45.73
2022-10-09T23:55:51.726Z,45.15
2022-10-09T23:58:53.857Z,46.13
